Huvudsida
METAR-TAF:

METAR-TAF

Flygplatser :

Nakhon Si Thammarat, Thailand

latitud: 8-32-22N, longitud: 99-56-41E, höjd: 4 m

Aktuellt väderrapport

Denna rapport gjordes för 6 timmar och 42 minuter sedan, klockan 15:00 UTC
Stilla vind
Temperatur 25°C
Fuktighet 94%
Tryck 1013 hPa
Sikt 10 km eller mer
Få moln på en höjd av 1800 ft

METAR: VTSF 221500Z 00000KT 9999 FEW018 25/24 Q1013 NOSIG

Tid: 04:42 (21:42 UTC)

Väderprognos

Denna rapport gjordes för 4 timmar och 42 minuter sedan, klockan 17:00 UTC
Prognos gäller från 22 kl. 18 UTC till 23 kl. 18 UTC
Vind kt från nord
Sikt 10 km eller mer
Få moln på en höjd av 2000 ft
Blir
från 23 kl. 04 UTC till 23 kl. 06 UTC
Vind 10 kt från ost
Blir
från 23 kl. 13 UTC till 23 kl. 15 UTC
Vind 2 kt från syd

TAF: VTSF 221700Z 2218/2318 00000KT 9999 FEW020 BECMG 2304/2306 09010KT BECMG 2313/2315 19002KT

Aktuella väderrapporter och prognoser från 4000 flygplatser (METAR- och TAF-rapporter).

De tillgängliga stationerna syns som gula och röda prickar på kartan.

För musen över prickarna för att se namnen på stationerna.

Klicka sedan för att få väderrapporter och prognoser.

För att ändra kartan: Klicka på de gröna knapparna med ett svart kors på för att zooma in; den gröna knappen med ett streck på för att zooma ut; eller på de gröna pilarna för angränsande kartor.


METAR-TAF: